OTBD weather

Doha International Airport
Doha, Ad Dawhah Municipality, Qatar

Public forecast

Using degrees Celsius for public forecast. Weather courtesy of forecast.io.

METAR (pilot weather report)

Retrieved 2018/09/26 04:00 UTC (20 minutes ago):

OTBD 260400Z VRB02KT CAVOK 35/15 Q1007 NOSIG

TAF (pilot weather forecast)

Forecast is more than 12 hours old.

Retrieved 2018/09/25 00:00 UTC (1 day ago):

TAF OTBD 252258Z 2600/2706 27007KT 8000 NSC BECMG 2608/2610 33011KT BECMG 2614/2616 03006KT BECMG 2620/2622 33005KT BECMG 2704/2706 06008KT